sensor_id;sensor_type;location;lat;lon;timestamp;P1;durP1;ratioP1;P2;durP2;ratioP2
23260;SDS011;11799;47.740;-3.390;2023-02-27T00:02:07;5.72;;;2.28;;
23260;SDS011;11799;47.740;-3.390;2023-02-27T00:04:33;5.45;;;2.10;;
23260;SDS011;11799;47.740;-3.390;2023-02-27T00:06:59;4.43;;;2.03;;
23260;SDS011;11799;47.740;-3.390;2023-02-27T00:09:25;4.78;;;2.25;;
23260;SDS011;11799;47.740;-3.390;2023-02-27T00:11:50;5.47;;;2.08;;
23260;SDS011;11799;47.740;-3.390;2023-02-27T00:14:16;4.82;;;2.20;;
23260;SDS011;11799;47.740;-3.390;2023-02-27T00:16:42;3.55;;;1.90;;
23260;SDS011;11799;47.740;-3.390;2023-02-27T00:19:07;5.10;;;2.05;;
23260;SDS011;11799;47.740;-3.390;2023-02-27T00:21:33;6.50;;;1.98;;
23260;SDS011;11799;47.740;-3.390;2023-02-27T00:24:00;4.68;;;2.13;;
23260;SDS011;11799;47.740;-3.390;2023-02-27T00:26:26;3.88;;;2.17;;
23260;SDS011;11799;47.740;-3.390;2023-02-27T00:28:51;4.30;;;2.30;;
23260;SDS011;11799;47.740;-3.390;2023-02-27T00:31:17;7.55;;;1.95;;
23260;SDS011;11799;47.740;-3.390;2023-02-27T00:33:43;3.30;;;2.05;;
23260;SDS011;11799;47.740;-3.390;2023-02-27T00:36:08;5.05;;;2.10;;
23260;SDS011;11799;47.740;-3.390;2023-02-27T00:38:34;2.67;;;1.90;;
23260;SDS011;11799;47.740;-3.390;2023-02-27T00:41:00;5.57;;;2.22;;
23260;SDS011;11799;47.740;-3.390;2023-02-27T00:43:25;5.68;;;2.05;;
23260;SDS011;11799;47.740;-3.390;2023-02-27T00:45:51;7.30;;;1.90;;
23260;SDS011;11799;47.740;-3.390;2023-02-27T00:48:17;3.20;;;2.08;;
23260;SDS011;11799;47.740;-3.390;2023-02-27T00:50:42;3.55;;;1.80;;
23260;SDS011;11799;47.740;-3.390;2023-02-27T00:53:08;4.47;;;2.08;;
23260;SDS011;11799;47.740;-3.390;2023-02-27T00:55:34;4.30;;;2.15;;
23260;SDS011;11799;47.740;-3.390;2023-02-27T00:57:59;6.50;;;2.30;;
23260;SDS011;11799;47.740;-3.390;2023-02-27T01:00:25;5.32;;;2.22;;
23260;SDS011;11799;47.740;-3.390;2023-02-27T01:02:52;5.25;;;2.28;;
23260;SDS011;11799;47.740;-3.390;2023-02-27T01:05:18;3.58;;;2.10;;
23260;SDS011;11799;47.740;-3.390;2023-02-27T01:07:43;4.32;;;2.17;;
23260;SDS011;11799;47.740;-3.390;2023-02-27T01:10:10;6.50;;;2.45;;
23260;SDS011;11799;47.740;-3.390;2023-02-27T01:12:36;7.63;;;2.22;;
23260;SDS011;11799;47.740;-3.390;2023-02-27T01:15:03;5.25;;;2.33;;
23260;SDS011;11799;47.740;-3.390;2023-02-27T01:17:31;3.45;;;2.08;;
23260;SDS011;11799;47.740;-3.390;2023-02-27T01:19:57;5.43;;;2.40;;
23260;SDS011;11799;47.740;-3.390;2023-02-27T01:22:22;4.57;;;2.13;;
23260;SDS011;11799;47.740;-3.390;2023-02-27T01:24:49;8.00;;;2.30;;
23260;SDS011;11799;47.740;-3.390;2023-02-27T01:27:15;5.18;;;2.55;;
23260;SDS011;11799;47.740;-3.390;2023-02-27T01:29:41;4.93;;;2.20;;
23260;SDS011;11799;47.740;-3.390;2023-02-27T01:32:06;3.75;;;2.28;;
23260;SDS011;11799;47.740;-3.390;2023-02-27T01:34:32;4.00;;;2.30;;
23260;SDS011;11799;47.740;-3.390;2023-02-27T01:37:00;4.28;;;1.95;;
23260;SDS011;11799;47.740;-3.390;2023-02-27T01:39:26;6.47;;;2.30;;
23260;SDS011;11799;47.740;-3.390;2023-02-27T01:41:52;4.22;;;2.30;;
23260;SDS011;11799;47.740;-3.390;2023-02-27T01:44:19;5.00;;;2.50;;
23260;SDS011;11799;47.740;-3.390;2023-02-27T01:46:44;3.47;;;2.30;;
23260;SDS011;11799;47.740;-3.390;2023-02-27T01:49:12;5.35;;;2.28;;
23260;SDS011;11799;47.740;-3.390;2023-02-27T01:51:45;4.43;;;2.03;;
23260;SDS011;11799;47.740;-3.390;2023-02-27T01:54:39;3.33;;;2.50;;
23260;SDS011;11799;47.740;-3.390;2023-02-27T01:57:06;5.47;;;2.50;;
23260;SDS011;11799;47.740;-3.390;2023-02-27T01:59:34;3.42;;;2.10;;
23260;SDS011;11799;47.740;-3.390;2023-02-27T02:02:02;5.78;;;2.17;;
23260;SDS011;11799;47.740;-3.390;2023-02-27T02:04:34;4.15;;;2.03;;
23260;SDS011;11799;47.740;-3.390;2023-02-27T02:07:03;5.40;;;2.03;;
23260;SDS011;11799;47.740;-3.390;2023-02-27T02:09:32;6.15;;;2.10;;
23260;SDS011;11799;47.740;-3.390;2023-02-27T02:14:28;4.97;;;1.75;;
23260;SDS011;11799;47.740;-3.390;2023-02-27T02:55:42;2.38;;;1.80;;
23260;SDS011;11799;47.740;-3.390;2023-02-27T03:01:14;4.10;;;2.10;;
23260;SDS011;11799;47.740;-3.390;2023-02-27T03:04:26;4.22;;;2.08;;
23260;SDS011;11799;47.740;-3.390;2023-02-27T03:06:42;6.32;;;2.17;;
23260;SDS011;11799;47.740;-3.390;2023-02-27T03:09:17;5.80;;;2.22;;
23260;SDS011;11799;47.740;-3.390;2023-02-27T03:12:04;3.97;;;1.98;;
23260;SDS011;11799;47.740;-3.390;2023-02-27T03:14:45;5.90;;;2.33;;
23260;SDS011;11799;47.740;-3.390;2023-02-27T03:17:28;7.53;;;2.58;;
23260;SDS011;11799;47.740;-3.390;2023-02-27T03:20:04;2.65;;;2.13;;
23260;SDS011;11799;47.740;-3.390;2023-02-27T03:22:34;5.18;;;2.30;;
23260;SDS011;11799;47.740;-3.390;2023-02-27T03:25:04;3.85;;;2.35;;
23260;SDS011;11799;47.740;-3.390;2023-02-27T03:27:36;4.07;;;2.35;;
23260;SDS011;11799;47.740;-3.390;2023-02-27T03:30:50;4.05;;;2.00;;
23260;SDS011;11799;47.740;-3.390;2023-02-27T03:35:58;5.05;;;2.22;;
23260;SDS011;11799;47.740;-3.390;2023-02-27T03:38:37;4.03;;;2.10;;
23260;SDS011;11799;47.740;-3.390;2023-02-27T03:41:26;3.45;;;1.90;;
23260;SDS011;11799;47.740;-3.390;2023-02-27T03:46:47;3.58;;;1.98;;
23260;SDS011;11799;47.740;-3.390;2023-02-27T03:49:12;5.60;;;2.33;;
23260;SDS011;11799;47.740;-3.390;2023-02-27T03:51:38;3.35;;;2.03;;
23260;SDS011;11799;47.740;-3.390;2023-02-27T03:54:24;2.67;;;1.92;;
23260;SDS011;11799;47.740;-3.390;2023-02-27T03:59:31;4.40;;;2.30;;
23260;SDS011;11799;47.740;-3.390;2023-02-27T04:01:59;3.88;;;2.10;;
23260;SDS011;11799;47.740;-3.390;2023-02-27T04:04:29;5.03;;;2.50;;
23260;SDS011;11799;47.740;-3.390;2023-02-27T04:12:46;7.95;;;2.33;;
23260;SDS011;11799;47.740;-3.390;2023-02-27T04:15:29;4.38;;;2.15;;
23260;SDS011;11799;47.740;-3.390;2023-02-27T04:20:44;3.25;;;2.30;;
23260;SDS011;11799;47.740;-3.390;2023-02-27T04:25:48;6.30;;;2.08;;
23260;SDS011;11799;47.740;-3.390;2023-02-27T04:33:43;4.65;;;2.38;;
23260;SDS011;11799;47.740;-3.390;2023-02-27T04:39:23;5.55;;;2.50;;
23260;SDS011;11799;47.740;-3.390;2023-02-27T04:41:59;5.00;;;2.40;;
23260;SDS011;11799;47.740;-3.390;2023-02-27T04:44:29;3.95;;;2.17;;
23260;SDS011;11799;47.740;-3.390;2023-02-27T04:46:59;5.43;;;2.60;;
23260;SDS011;11799;47.740;-3.390;2023-02-27T04:49:28;7.45;;;2.63;;
23260;SDS011;11799;47.740;-3.390;2023-02-27T04:54:54;3.72;;;2.50;;
23260;SDS011;11799;47.740;-3.390;2023-02-27T04:57:29;3.53;;;2.40;;
23260;SDS011;11799;47.740;-3.390;2023-02-27T05:00:00;5.82;;;2.38;;
23260;SDS011;11799;47.740;-3.390;2023-02-27T05:02:32;4.75;;;2.60;;
23260;SDS011;11799;47.740;-3.390;2023-02-27T05:05:02;3.78;;;2.58;;
23260;SDS011;11799;47.740;-3.390;2023-02-27T05:07:36;5.80;;;2.28;;
23260;SDS011;11799;47.740;-3.390;2023-02-27T05:10:07;4.22;;;2.55;;
23260;SDS011;11799;47.740;-3.390;2023-02-27T05:12:39;6.35;;;2.55;;
23260;SDS011;11799;47.740;-3.390;2023-02-27T05:20:10;6.70;;;2.42;;
23260;SDS011;11799;47.740;-3.390;2023-02-27T05:28:09;3.45;;;2.25;;
23260;SDS011;11799;47.740;-3.390;2023-02-27T05:33:51;4.53;;;2.63;;
23260;SDS011;11799;47.740;-3.390;2023-02-27T05:39:27;5.38;;;2.05;;
23260;SDS011;11799;47.740;-3.390;2023-02-27T05:42:03;2.97;;;2.15;;
23260;SDS011;11799;47.740;-3.390;2023-02-27T05:44:34;3.95;;;1.90;;
23260;SDS011;11799;47.740;-3.390;2023-02-27T05:47:10;8.02;;;2.10;;
23260;SDS011;11799;47.740;-3.390;2023-02-27T05:49:42;5.25;;;2.15;;
23260;SDS011;11799;47.740;-3.390;2023-02-27T05:52:13;3.72;;;2.38;;
23260;SDS011;11799;47.740;-3.390;2023-02-27T05:54:47;3.33;;;2.65;;
23260;SDS011;11799;47.740;-3.390;2023-02-27T05:57:41;2.83;;;2.05;;
23260;SDS011;11799;47.740;-3.390;2023-02-27T06:00:11;3.17;;;2.00;;
23260;SDS011;11799;47.740;-3.390;2023-02-27T06:02:39;4.00;;;2.15;;
23260;SDS011;11799;47.740;-3.390;2023-02-27T06:05:08;5.07;;;1.90;;
23260;SDS011;11799;47.740;-3.390;2023-02-27T06:07:34;2.72;;;1.80;;
23260;SDS011;11799;47.740;-3.390;2023-02-27T06:10:00;5.15;;;2.00;;
23260;SDS011;11799;47.740;-3.390;2023-02-27T06:12:26;4.68;;;2.08;;
23260;SDS011;11799;47.740;-3.390;2023-02-27T06:14:52;3.42;;;1.88;;
23260;SDS011;11799;47.740;-3.390;2023-02-27T06:17:17;3.28;;;2.00;;
23260;SDS011;11799;47.740;-3.390;2023-02-27T06:19:43;3.75;;;1.77;;
23260;SDS011;11799;47.740;-3.390;2023-02-27T06:22:09;1.83;;;1.65;;
23260;SDS011;11799;47.740;-3.390;2023-02-27T06:24:35;4.15;;;1.80;;
23260;SDS011;11799;47.740;-3.390;2023-02-27T06:27:01;5.50;;;1.80;;
23260;SDS011;11799;47.740;-3.390;2023-02-27T06:29:26;5.38;;;2.10;;
23260;SDS011;11799;47.740;-3.390;2023-02-27T06:31:52;3.65;;;1.80;;
23260;SDS011;11799;47.740;-3.390;2023-02-27T06:34:18;2.65;;;1.75;;
23260;SDS011;11799;47.740;-3.390;2023-02-27T06:36:43;4.47;;;1.90;;
23260;SDS011;11799;47.740;-3.390;2023-02-27T06:39:09;3.05;;;1.85;;
23260;SDS011;11799;47.740;-3.390;2023-02-27T06:41:35;5.85;;;1.98;;
23260;SDS011;11799;47.740;-3.390;2023-02-27T06:44:00;2.85;;;1.60;;
23260;SDS011;11799;47.740;-3.390;2023-02-27T06:46:26;4.05;;;1.85;;
23260;SDS011;11799;47.740;-3.390;2023-02-27T06:48:51;2.60;;;1.73;;
23260;SDS011;11799;47.740;-3.390;2023-02-27T06:51:17;4.70;;;1.83;;
23260;SDS011;11799;47.740;-3.390;2023-02-27T06:53:43;3.08;;;1.77;;
23260;SDS011;11799;47.740;-3.390;2023-02-27T06:56:08;2.95;;;1.67;;
23260;SDS011;11799;47.740;-3.390;2023-02-27T06:58:34;4.43;;;1.85;;
23260;SDS011;11799;47.740;-3.390;2023-02-27T07:00:59;3.33;;;1.67;;
23260;SDS011;11799;47.740;-3.390;2023-02-27T07:03:25;2.17;;;1.48;;
23260;SDS011;11799;47.740;-3.390;2023-02-27T07:05:51;5.57;;;1.50;;
23260;SDS011;11799;47.740;-3.390;2023-02-27T07:08:16;3.50;;;1.80;;
23260;SDS011;11799;47.740;-3.390;2023-02-27T07:10:45;3.75;;;2.05;;
23260;SDS011;11799;47.740;-3.390;2023-02-27T07:13:11;5.20;;;1.75;;
23260;SDS011;11799;47.740;-3.390;2023-02-27T07:15:38;5.18;;;1.70;;
23260;SDS011;11799;47.740;-3.390;2023-02-27T07:18:04;7.82;;;1.98;;
23260;SDS011;11799;47.740;-3.390;2023-02-27T07:20:29;3.38;;;2.10;;
23260;SDS011;11799;47.740;-3.390;2023-02-27T07:22:55;6.70;;;1.70;;
23260;SDS011;11799;47.740;-3.390;2023-02-27T07:25:21;2.40;;;1.40;;
23260;SDS011;11799;47.740;-3.390;2023-02-27T07:27:46;7.05;;;1.73;;
23260;SDS011;11799;47.740;-3.390;2023-02-27T07:30:14;4.07;;;1.90;;
23260;SDS011;11799;47.740;-3.390;2023-02-27T07:32:40;6.18;;;1.65;;
23260;SDS011;11799;47.740;-3.390;2023-02-27T07:35:06;5.75;;;1.70;;
23260;SDS011;11799;47.740;-3.390;2023-02-27T07:37:32;13.93;;;1.95;;
23260;SDS011;11799;47.740;-3.390;2023-02-27T07:39:57;6.82;;;2.03;;
23260;SDS011;11799;47.740;-3.390;2023-02-27T07:42:23;2.63;;;1.60;;
23260;SDS011;11799;47.740;-3.390;2023-02-27T07:44:49;6.22;;;1.95;;
23260;SDS011;11799;47.740;-3.390;2023-02-27T07:47:14;6.63;;;2.10;;
23260;SDS011;11799;47.740;-3.390;2023-02-27T07:49:41;5.85;;;1.80;;
23260;SDS011;11799;47.740;-3.390;2023-02-27T07:52:07;7.00;;;2.00;;
23260;SDS011;11799;47.740;-3.390;2023-02-27T07:54:33;5.97;;;1.73;;
23260;SDS011;11799;47.740;-3.390;2023-02-27T07:57:01;3.75;;;1.63;;
23260;SDS011;11799;47.740;-3.390;2023-02-27T07:59:26;4.97;;;2.15;;
23260;SDS011;11799;47.740;-3.390;2023-02-27T08:01:52;4.63;;;1.95;;
23260;SDS011;11799;47.740;-3.390;2023-02-27T08:04:17;7.18;;;2.00;;
23260;SDS011;11799;47.740;-3.390;2023-02-27T08:06:43;3.65;;;1.88;;
23260;SDS011;11799;47.740;-3.390;2023-02-27T08:09:09;5.25;;;1.70;;
23260;SDS011;11799;47.740;-3.390;2023-02-27T08:11:35;5.40;;;2.10;;
23260;SDS011;11799;47.740;-3.390;2023-02-27T08:14:00;4.47;;;2.08;;
23260;SDS011;11799;47.740;-3.390;2023-02-27T08:16:26;6.80;;;1.83;;
23260;SDS011;11799;47.740;-3.390;2023-02-27T08:18:51;5.78;;;2.08;;
23260;SDS011;11799;47.740;-3.390;2023-02-27T08:21:17;5.72;;;1.70;;
23260;SDS011;11799;47.740;-3.390;2023-02-27T08:23:42;7.65;;;1.45;;
23260;SDS011;11799;47.740;-3.390;2023-02-27T08:26:08;7.45;;;1.65;;
23260;SDS011;11799;47.740;-3.390;2023-02-27T08:28:34;4.15;;;1.50;;
23260;SDS011;11799;47.740;-3.390;2023-02-27T08:30:59;2.40;;;1.45;;
23260;SDS011;11799;47.740;-3.390;2023-02-27T08:33:25;3.42;;;1.73;;
23260;SDS011;11799;47.740;-3.390;2023-02-27T08:35:50;5.00;;;1.77;;
23260;SDS011;11799;47.740;-3.390;2023-02-27T08:38:18;6.25;;;1.77;;
23260;SDS011;11799;47.740;-3.390;2023-02-27T08:40:44;5.47;;;1.48;;
23260;SDS011;11799;47.740;-3.390;2023-02-27T08:43:10;5.45;;;1.40;;
23260;SDS011;11799;47.740;-3.390;2023-02-27T08:45:36;3.15;;;1.50;;
23260;SDS011;11799;47.740;-3.390;2023-02-27T08:48:01;6.05;;;1.55;;
23260;SDS011;11799;47.740;-3.390;2023-02-27T08:50:27;2.75;;;1.45;;
23260;SDS011;11799;47.740;-3.390;2023-02-27T08:52:52;2.78;;;1.60;;
23260;SDS011;11799;47.740;-3.390;2023-02-27T08:55:18;2.88;;;1.70;;
23260;SDS011;11799;47.740;-3.390;2023-02-27T08:57:44;5.38;;;1.60;;
23260;SDS011;11799;47.740;-3.390;2023-02-27T09:00:09;3.17;;;1.55;;
23260;SDS011;11799;47.740;-3.390;2023-02-27T09:02:38;6.78;;;1.83;;
23260;SDS011;11799;47.740;-3.390;2023-02-27T09:05:04;6.30;;;1.52;;
23260;SDS011;11799;47.740;-3.390;2023-02-27T09:07:31;2.60;;;1.30;;
23260;SDS011;11799;47.740;-3.390;2023-02-27T09:09:58;3.38;;;1.58;;
23260;SDS011;11799;47.740;-3.390;2023-02-27T09:12:24;4.03;;;1.67;;
23260;SDS011;11799;47.740;-3.390;2023-02-27T09:14:49;2.03;;;1.30;;
23260;SDS011;11799;47.740;-3.390;2023-02-27T09:17:15;3.28;;;1.40;;
23260;SDS011;11799;47.740;-3.390;2023-02-27T09:19:41;5.88;;;1.55;;
23260;SDS011;11799;47.740;-3.390;2023-02-27T09:22:06;7.47;;;1.55;;
23260;SDS011;11799;47.740;-3.390;2023-02-27T09:24:32;5.68;;;1.42;;
23260;SDS011;11799;47.740;-3.390;2023-02-27T09:26:57;6.38;;;1.30;;
23260;SDS011;11799;47.740;-3.390;2023-02-27T09:29:23;7.10;;;1.30;;
23260;SDS011;11799;47.740;-3.390;2023-02-27T09:31:49;3.97;;;1.30;;
23260;SDS011;11799;47.740;-3.390;2023-02-27T09:34:15;4.13;;;1.30;;
23260;SDS011;11799;47.740;-3.390;2023-02-27T09:36:41;4.57;;;1.30;;
23260;SDS011;11799;47.740;-3.390;2023-02-27T09:39:07;3.42;;;1.25;;
23260;SDS011;11799;47.740;-3.390;2023-02-27T09:44:30;3.30;;;1.45;;
23260;SDS011;11799;47.740;-3.390;2023-02-27T09:47:01;9.77;;;1.42;;
23260;SDS011;11799;47.740;-3.390;2023-02-27T09:49:30;2.30;;;1.60;;
23260;SDS011;11799;47.740;-3.390;2023-02-27T09:52:00;3.65;;;1.25;;
23260;SDS011;11799;47.740;-3.390;2023-02-27T09:54:27;3.80;;;1.25;;
23260;SDS011;11799;47.740;-3.390;2023-02-27T09:56:57;3.42;;;1.17;;
23260;SDS011;11799;47.740;-3.390;2023-02-27T10:04:41;5.05;;;1.52;;
23260;SDS011;11799;47.740;-3.390;2023-02-27T10:07:11;8.00;;;1.42;;
23260;SDS011;11799;47.740;-3.390;2023-02-27T10:14:57;2.20;;;1.42;;
23260;SDS011;11799;47.740;-3.390;2023-02-27T10:17:41;5.07;;;1.30;;
23260;SDS011;11799;47.740;-3.390;2023-02-27T10:20:33;2.80;;;1.30;;
23260;SDS011;11799;47.740;-3.390;2023-02-27T10:23:04;5.20;;;1.60;;
23260;SDS011;11799;47.740;-3.390;2023-02-27T10:25:39;4.25;;;1.52;;
23260;SDS011;11799;47.740;-3.390;2023-02-27T10:28:19;3.13;;;1.50;;
23260;SDS011;11799;47.740;-3.390;2023-02-27T10:30:47;4.05;;;1.50;;
23260;SDS011;11799;47.740;-3.390;2023-02-27T10:33:18;3.92;;;1.30;;
23260;SDS011;11799;47.740;-3.390;2023-02-27T10:35:51;7.90;;;1.85;;
23260;SDS011;11799;47.740;-3.390;2023-02-27T10:41:21;2.33;;;1.38;;
23260;SDS011;11799;47.740;-3.390;2023-02-27T10:43:47;6.10;;;1.60;;
23260;SDS011;11799;47.740;-3.390;2023-02-27T10:46:24;3.97;;;1.40;;
23260;SDS011;11799;47.740;-3.390;2023-02-27T10:48:52;4.47;;;1.60;;
23260;SDS011;11799;47.740;-3.390;2023-02-27T10:51:20;7.57;;;1.77;;
23260;SDS011;11799;47.740;-3.390;2023-02-27T10:53:49;2.88;;;1.33;;
23260;SDS011;11799;47.740;-3.390;2023-02-27T10:56:21;4.10;;;1.73;;
23260;SDS011;11799;47.740;-3.390;2023-02-27T10:59:03;4.68;;;1.58;;
23260;SDS011;11799;47.740;-3.390;2023-02-27T11:01:41;5.88;;;1.55;;
23260;SDS011;11799;47.740;-3.390;2023-02-27T11:04:21;2.60;;;1.80;;
23260;SDS011;11799;47.740;-3.390;2023-02-27T11:06:50;3.45;;;1.70;;
23260;SDS011;11799;47.740;-3.390;2023-02-27T11:09:28;2.97;;;1.48;;
23260;SDS011;11799;47.740;-3.390;2023-02-27T11:14:59;2.53;;;1.45;;
23260;SDS011;11799;47.740;-3.390;2023-02-27T11:17:31;3.92;;;1.63;;
23260;SDS011;11799;47.740;-3.390;2023-02-27T11:19:59;2.83;;;1.70;;
23260;SDS011;11799;47.740;-3.390;2023-02-27T11:22:27;3.40;;;1.73;;
23260;SDS011;11799;47.740;-3.390;2023-02-27T11:25:16;3.80;;;1.70;;
23260;SDS011;11799;47.740;-3.390;2023-02-27T11:27:47;3.75;;;1.60;;
23260;SDS011;11799;47.740;-3.390;2023-02-27T11:32:49;2.83;;;1.48;;
23260;SDS011;11799;47.740;-3.390;2023-02-27T11:35:21;2.00;;;1.25;;
23260;SDS011;11799;47.740;-3.390;2023-02-27T11:37:51;2.28;;;1.33;;
23260;SDS011;11799;47.740;-3.390;2023-02-27T11:40:19;3.28;;;1.40;;
23260;SDS011;11799;47.740;-3.390;2023-02-27T11:42:48;3.15;;;1.70;;
23260;SDS011;11799;47.740;-3.390;2023-02-27T11:47:51;1.92;;;1.10;;
23260;SDS011;11799;47.740;-3.390;2023-02-27T11:53:09;1.90;;;1.55;;
23260;SDS011;11799;47.740;-3.390;2023-02-27T11:56:00;2.08;;;1.38;;
23260;SDS011;11799;47.740;-3.390;2023-02-27T11:58:31;2.47;;;1.48;;
23260;SDS011;11799;47.740;-3.390;2023-02-27T12:01:07;4.95;;;1.80;;
23260;SDS011;11799;47.740;-3.390;2023-02-27T12:06:50;4.95;;;1.67;;
23260;SDS011;11799;47.740;-3.390;2023-02-27T12:11:54;3.90;;;2.22;;
23260;SDS011;11799;47.740;-3.390;2023-02-27T12:14:25;3.85;;;1.42;;
23260;SDS011;11799;47.740;-3.390;2023-02-27T12:20:00;3.05;;;1.55;;
23260;SDS011;11799;47.740;-3.390;2023-02-27T12:22:35;4.22;;;1.30;;
23260;SDS011;11799;47.740;-3.390;2023-02-27T12:30:35;2.75;;;1.40;;
23260;SDS011;11799;47.740;-3.390;2023-02-27T12:35:57;2.60;;;1.52;;
23260;SDS011;11799;47.740;-3.390;2023-02-27T12:38:25;3.17;;;1.45;;
23260;SDS011;11799;47.740;-3.390;2023-02-27T12:41:40;3.75;;;1.50;;
23260;SDS011;11799;47.740;-3.390;2023-02-27T12:46:53;3.22;;;1.48;;
23260;SDS011;11799;47.740;-3.390;2023-02-27T12:49:33;2.67;;;1.52;;
23260;SDS011;11799;47.740;-3.390;2023-02-27T13:00:52;3.85;;;1.55;;
23260;SDS011;11799;47.740;-3.390;2023-02-27T13:11:41;3.28;;;2.00;;
23260;SDS011;11799;47.740;-3.390;2023-02-27T13:17:11;3.95;;;1.63;;
23260;SDS011;11799;47.740;-3.390;2023-02-27T13:19:56;2.88;;;1.50;;
23260;SDS011;11799;47.740;-3.390;2023-02-27T13:22:31;2.22;;;1.70;;
23260;SDS011;11799;47.740;-3.390;2023-02-27T13:25:04;3.10;;;1.60;;
23260;SDS011;11799;47.740;-3.390;2023-02-27T13:27:41;1.40;;;1.30;;
23260;SDS011;11799;47.740;-3.390;2023-02-27T13:30:12;2.45;;;1.60;;
23260;SDS011;11799;47.740;-3.390;2023-02-27T13:46:28;3.75;;;1.70;;
23260;SDS011;11799;47.740;-3.390;2023-02-27T13:56:44;4.75;;;1.85;;
23260;SDS011;11799;47.740;-3.390;2023-02-27T13:59:28;2.75;;;1.80;;
23260;SDS011;11799;47.740;-3.390;2023-02-27T14:02:00;2.92;;;1.85;;
23260;SDS011;11799;47.740;-3.390;2023-02-27T14:04:28;2.88;;;1.75;;
23260;SDS011;11799;47.740;-3.390;2023-02-27T14:06:57;5.18;;;1.55;;
23260;SDS011;11799;47.740;-3.390;2023-02-27T14:09:25;3.38;;;1.80;;
23260;SDS011;11799;47.740;-3.390;2023-02-27T14:12:02;3.70;;;1.90;;
23260;SDS011;11799;47.740;-3.390;2023-02-27T14:14:43;2.30;;;1.63;;
23260;SDS011;11799;47.740;-3.390;2023-02-27T14:19:58;4.53;;;1.75;;
23260;SDS011;11799;47.740;-3.390;2023-02-27T14:22:32;6.25;;;2.10;;
23260;SDS011;11799;47.740;-3.390;2023-02-27T14:25:10;2.83;;;1.77;;
23260;SDS011;11799;47.740;-3.390;2023-02-27T14:33:06;3.88;;;1.80;;
23260;SDS011;11799;47.740;-3.390;2023-02-27T14:35:49;5.10;;;1.73;;
23260;SDS011;11799;47.740;-3.390;2023-02-27T14:38:21;8.30;;;1.95;;
23260;SDS011;11799;47.740;-3.390;2023-02-27T14:43:43;3.83;;;1.70;;
23260;SDS011;11799;47.740;-3.390;2023-02-27T14:51:45;3.15;;;1.60;;
23260;SDS011;11799;47.740;-3.390;2023-02-27T14:54:12;2.53;;;1.85;;
23260;SDS011;11799;47.740;-3.390;2023-02-27T14:57:04;2.17;;;1.90;;
23260;SDS011;11799;47.740;-3.390;2023-02-27T14:59:30;4.43;;;2.20;;
23260;SDS011;11799;47.740;-3.390;2023-02-27T15:01:58;5.78;;;1.92;;
23260;SDS011;11799;47.740;-3.390;2023-02-27T15:04:27;3.50;;;1.65;;
23260;SDS011;11799;47.740;-3.390;2023-02-27T15:06:55;3.05;;;2.00;;
23260;SDS011;11799;47.740;-3.390;2023-02-27T15:09:39;5.90;;;2.30;;
23260;SDS011;11799;47.740;-3.390;2023-02-27T15:12:15;6.05;;;1.92;;
23260;SDS011;11799;47.740;-3.390;2023-02-27T15:14:44;3.75;;;1.90;;
23260;SDS011;11799;47.740;-3.390;2023-02-27T15:17:15;3.95;;;2.08;;
23260;SDS011;11799;47.740;-3.390;2023-02-27T15:19:49;6.85;;;2.08;;
23260;SDS011;11799;47.740;-3.390;2023-02-27T15:22:16;3.97;;;2.00;;
23260;SDS011;11799;47.740;-3.390;2023-02-27T15:24:50;7.03;;;2.47;;
23260;SDS011;11799;47.740;-3.390;2023-02-27T15:27:17;2.63;;;1.73;;
23260;SDS011;11799;47.740;-3.390;2023-02-27T15:29:48;4.85;;;2.05;;
23260;SDS011;11799;47.740;-3.390;2023-02-27T15:34:56;3.05;;;1.95;;
23260;SDS011;11799;47.740;-3.390;2023-02-27T15:37:26;3.15;;;1.75;;
23260;SDS011;11799;47.740;-3.390;2023-02-27T15:39:55;3.05;;;1.70;;
23260;SDS011;11799;47.740;-3.390;2023-02-27T15:42:24;4.75;;;2.08;;
23260;SDS011;11799;47.740;-3.390;2023-02-27T15:44:54;4.00;;;2.15;;
23260;SDS011;11799;47.740;-3.390;2023-02-27T15:47:31;1.92;;;1.63;;
23260;SDS011;11799;47.740;-3.390;2023-02-27T15:50:05;4.05;;;1.88;;
23260;SDS011;11799;47.740;-3.390;2023-02-27T15:52:52;4.88;;;1.88;;
23260;SDS011;11799;47.740;-3.390;2023-02-27T15:55:24;3.55;;;2.13;;
23260;SDS011;11799;47.740;-3.390;2023-02-27T15:57:52;5.57;;;2.95;;
23260;SDS011;11799;47.740;-3.390;2023-02-27T16:00:18;4.35;;;2.47;;
23260;SDS011;11799;47.740;-3.390;2023-02-27T16:02:46;6.80;;;2.47;;
23260;SDS011;11799;47.740;-3.390;2023-02-27T16:05:16;7.20;;;2.20;;
23260;SDS011;11799;47.740;-3.390;2023-02-27T16:08:03;4.57;;;2.00;;
23260;SDS011;11799;47.740;-3.390;2023-02-27T16:10:40;5.63;;;2.75;;
23260;SDS011;11799;47.740;-3.390;2023-02-27T16:13:21;3.97;;;2.58;;
23260;SDS011;11799;47.740;-3.390;2023-02-27T16:18:46;6.25;;;2.30;;
23260;SDS011;11799;47.740;-3.390;2023-02-27T16:21:20;2.80;;;2.30;;
23260;SDS011;11799;47.740;-3.390;2023-02-27T16:23:47;5.43;;;1.90;;
23260;SDS011;11799;47.740;-3.390;2023-02-27T16:28:52;4.80;;;2.40;;
23260;SDS011;11799;47.740;-3.390;2023-02-27T16:33:54;4.95;;;2.17;;
23260;SDS011;11799;47.740;-3.390;2023-02-27T16:36:22;3.63;;;2.10;;
23260;SDS011;11799;47.740;-3.390;2023-02-27T16:38:50;3.20;;;2.15;;
23260;SDS011;11799;47.740;-3.390;2023-02-27T16:41:16;3.85;;;1.70;;
23260;SDS011;11799;47.740;-3.390;2023-02-27T16:43:44;5.32;;;2.30;;
23260;SDS011;11799;47.740;-3.390;2023-02-27T16:46:11;6.38;;;2.10;;
23260;SDS011;11799;47.740;-3.390;2023-02-27T16:48:47;6.22;;;2.30;;
23260;SDS011;11799;47.740;-3.390;2023-02-27T16:51:18;4.57;;;2.13;;
23260;SDS011;11799;47.740;-3.390;2023-02-27T16:53:49;4.00;;;2.00;;
23260;SDS011;11799;47.740;-3.390;2023-02-27T16:56:16;3.70;;;2.13;;
23260;SDS011;11799;47.740;-3.390;2023-02-27T16:58:43;4.53;;;2.45;;
23260;SDS011;11799;47.740;-3.390;2023-02-27T17:01:10;6.32;;;2.45;;
23260;SDS011;11799;47.740;-3.390;2023-02-27T17:03:38;6.15;;;2.50;;
23260;SDS011;11799;47.740;-3.390;2023-02-27T17:06:04;2.95;;;1.88;;
23260;SDS011;11799;47.740;-3.390;2023-02-27T17:08:32;3.22;;;2.15;;
23260;SDS011;11799;47.740;-3.390;2023-02-27T17:10:59;4.10;;;2.08;;
23260;SDS011;11799;47.740;-3.390;2023-02-27T17:13:25;4.80;;;2.40;;
23260;SDS011;11799;47.740;-3.390;2023-02-27T17:15:51;4.45;;;2.67;;
23260;SDS011;11799;47.740;-3.390;2023-02-27T17:18:17;4.22;;;2.28;;
23260;SDS011;11799;47.740;-3.390;2023-02-27T17:20:42;5.65;;;2.15;;
23260;SDS011;11799;47.740;-3.390;2023-02-27T17:23:09;8.45;;;2.67;;
23260;SDS011;11799;47.740;-3.390;2023-02-27T17:25:34;4.13;;;2.30;;
23260;SDS011;11799;47.740;-3.390;2023-02-27T17:28:00;4.78;;;2.10;;
23260;SDS011;11799;47.740;-3.390;2023-02-27T17:30:26;7.63;;;2.53;;
23260;SDS011;11799;47.740;-3.390;2023-02-27T17:32:51;5.00;;;2.35;;
23260;SDS011;11799;47.740;-3.390;2023-02-27T17:35:17;8.52;;;2.15;;
23260;SDS011;11799;47.740;-3.390;2023-02-27T17:37:42;4.38;;;2.40;;
23260;SDS011;11799;47.740;-3.390;2023-02-27T17:40:08;4.13;;;2.22;;
23260;SDS011;11799;47.740;-3.390;2023-02-27T17:42:36;5.65;;;2.58;;
23260;SDS011;11799;47.740;-3.390;2023-02-27T17:45:03;7.38;;;2.40;;
23260;SDS011;11799;47.740;-3.390;2023-02-27T17:47:31;5.05;;;2.85;;
23260;SDS011;11799;47.740;-3.390;2023-02-27T17:49:58;6.60;;;3.20;;
23260;SDS011;11799;47.740;-3.390;2023-02-27T17:52:24;4.55;;;2.60;;
23260;SDS011;11799;47.740;-3.390;2023-02-27T17:54:49;2.63;;;1.92;;
23260;SDS011;11799;47.740;-3.390;2023-02-27T17:57:15;5.60;;;2.00;;
23260;SDS011;11799;47.740;-3.390;2023-02-27T17:59:41;3.33;;;2.05;;
23260;SDS011;11799;47.740;-3.390;2023-02-27T18:02:13;5.60;;;2.40;;
23260;SDS011;11799;47.740;-3.390;2023-02-27T18:04:39;4.32;;;2.40;;
23260;SDS011;11799;47.740;-3.390;2023-02-27T18:07:05;6.15;;;2.35;;
23260;SDS011;11799;47.740;-3.390;2023-02-27T18:09:31;4.35;;;2.28;;
23260;SDS011;11799;47.740;-3.390;2023-02-27T18:11:57;4.75;;;2.22;;
23260;SDS011;11799;47.740;-3.390;2023-02-27T18:14:23;6.97;;;2.22;;
23260;SDS011;11799;47.740;-3.390;2023-02-27T18:16:49;4.82;;;2.28;;